createdAt,value
2019-05-05T00:02:47.952Z,64.10
2019-05-05T00:05:36.140Z,64.50
2019-05-05T00:08:08.143Z,64.20
2019-05-05T00:10:41.239Z,63.70
2019-05-05T00:13:17.013Z,63.30
2019-05-05T00:16:05.675Z,62.60
2019-05-05T00:18:37.807Z,62.50
2019-05-05T00:21:09.633Z,61.90
2019-05-05T00:23:41.538Z,61.70
2019-05-05T00:26:14.889Z,61.50
2019-05-05T00:28:46.726Z,61.10
2019-05-05T00:31:18.584Z,61.10
2019-05-05T00:33:50.428Z,60.50
2019-05-05T00:36:24.433Z,60.30
2019-05-05T00:38:56.069Z,59.90
2019-05-05T00:41:27.828Z,59.80
2019-05-05T00:43:59.817Z,59.50
2019-05-05T00:46:48.117Z,59.50
2019-05-05T00:49:20.179Z,59.30
2019-05-05T00:51:51.788Z,59.10
2019-05-05T00:54:24.377Z,58.90
2019-05-05T00:56:56.195Z,58.80
2019-05-05T00:59:31.763Z,58.70
2019-05-05T01:02:19.657Z,58.40
2019-05-05T01:04:58.770Z,58.30
2019-05-05T01:07:30.452Z,58.10
2019-05-05T01:10:01.967Z,57.90
2019-05-05T01:12:34.880Z,57.70
2019-05-05T01:15:06.760Z,57.50
2019-05-05T01:17:38.692Z,57.10
2019-05-05T01:20:10.488Z,56.90
2019-05-05T01:22:42.357Z,56.70
2019-05-05T01:25:14.821Z,56.60
2019-05-05T01:27:46.831Z,56.20
2019-05-05T01:30:21.332Z,56.30
2019-05-05T01:32:57.364Z,56.20
2019-05-05T01:35:29.145Z,55.80
2019-05-05T01:38:21.549Z,55.70
2019-05-05T01:41:06.596Z,55.70
2019-05-05T01:43:38.696Z,55.60
2019-05-05T01:46:10.405Z,55.50
2019-05-05T01:48:44.404Z,54.80
2019-05-05T01:51:15.425Z,55.00
2019-05-05T01:53:47.250Z,55.20
2019-05-05T01:56:19.005Z,55.20
2019-05-05T01:58:51.021Z,55.10
2019-05-05T02:01:24.511Z,54.80
2019-05-05T02:03:55.952Z,54.90
2019-05-05T02:06:27.696Z,55.50
2019-05-05T02:08:59.604Z,54.60
2019-05-05T02:11:31.366Z,54.50
2019-05-05T02:14:05.013Z,54.40
2019-05-05T02:16:36.261Z,53.90
2019-05-05T02:19:07.888Z,53.80
2019-05-05T02:21:39.645Z,53.80
2019-05-05T02:24:11.380Z,53.40
2019-05-05T02:26:42.749Z,53.30
2019-05-05T02:29:15.519Z,53.20
2019-05-05T02:32:06.292Z,52.90
2019-05-05T02:34:38.557Z,51.90
2019-05-05T02:37:10.412Z,52.00
2019-05-05T02:39:52.632Z,52.80
2019-05-05T02:42:15.413Z,53.00
2019-05-05T02:44:47.395Z,52.80
2019-05-05T02:47:35.264Z,53.50
2019-05-05T02:50:08.227Z,52.60
2019-05-05T02:52:40.165Z,52.30
2019-05-05T02:55:11.921Z,52.30
2019-05-05T02:57:43.924Z,52.10
2019-05-05T03:00:24.021Z,51.90
2019-05-05T03:02:56.347Z,51.70
2019-05-05T03:05:28.182Z,51.40
2019-05-05T03:08:00.019Z,51.10
2019-05-05T03:10:33.853Z,51.60
2019-05-05T03:13:04.896Z,50.80
2019-05-05T03:15:57.683Z,50.60
2019-05-05T03:18:29.306Z,50.70
2019-05-05T03:21:04.449Z,50.50
2019-05-05T03:23:33.869Z,50.60
2019-05-05T03:26:05.500Z,50.60
2019-05-05T03:28:43.731Z,50.20
2019-05-05T03:31:15.956Z,49.60
2019-05-05T03:33:47.350Z,49.40
2019-05-05T03:36:19.049Z,49.60
2019-05-05T03:38:50.803Z,49.40
2019-05-05T03:41:27.015Z,49.30
2019-05-05T03:44:16.458Z,47.30
2019-05-05T03:46:48.245Z,48.80
2019-05-05T03:49:19.793Z,49.50
2019-05-05T03:51:51.569Z,48.90
2019-05-05T03:54:24.229Z,49.10
2019-05-05T03:57:11.701Z,48.90
2019-05-05T03:59:44.344Z,48.80
2019-05-05T04:02:34.137Z,48.80
2019-05-05T04:05:07.490Z,48.80
2019-05-05T04:07:39.157Z,48.50
2019-05-05T04:10:10.537Z,49.10
2019-05-05T04:12:43.486Z,48.10
2019-05-05T04:15:15.548Z,48.10
2019-05-05T04:17:51.199Z,47.80
2019-05-05T04:20:25.484Z,47.80
2019-05-05T04:22:58.201Z,45.80
2019-05-05T04:25:30.034Z,44.50
2019-05-05T04:28:01.497Z,45.80
2019-05-05T04:30:33.828Z,47.00
2019-05-05T04:33:05.746Z,47.20
2019-05-05T04:35:37.328Z,47.20
2019-05-05T04:38:09.077Z,47.40
2019-05-05T04:40:40.873Z,47.30
2019-05-05T04:43:14.356Z,47.20
2019-05-05T04:45:45.942Z,47.10
2019-05-05T04:48:21.743Z,46.80
2019-05-05T04:51:00.252Z,46.50
2019-05-05T04:53:34.667Z,45.80
2019-05-05T04:56:06.241Z,45.90
2019-05-05T04:58:38.000Z,45.90
2019-05-05T05:01:09.791Z,45.70
2019-05-05T05:03:55.044Z,45.70
2019-05-05T05:06:28.013Z,45.70
2019-05-05T05:08:59.677Z,45.50
2019-05-05T05:11:33.203Z,45.20
2019-05-05T05:14:04.424Z,45.10
2019-05-05T05:16:36.062Z,45.20
2019-05-05T05:19:07.725Z,45.00
2019-05-05T05:21:39.360Z,44.90
2019-05-05T05:24:10.747Z,44.70
2019-05-05T05:26:44.171Z,44.80
2019-05-05T05:29:15.533Z,44.60
2019-05-05T05:31:47.306Z,42.20
2019-05-05T05:34:18.614Z,44.50
2019-05-05T05:36:50.334Z,44.10
2019-05-05T05:39:39.177Z,38.80
2019-05-05T05:42:11.139Z,42.50
2019-05-05T05:44:44.518Z,43.50
2019-05-05T05:47:17.376Z,43.10
2019-05-05T05:49:54.360Z,41.60
2019-05-05T05:52:25.960Z,38.40
2019-05-05T05:54:57.517Z,42.30
2019-05-05T05:57:29.155Z,42.80
2019-05-05T06:00:00.801Z,43.10
2019-05-05T06:02:33.467Z,42.60
2019-05-05T06:05:05.143Z,42.90
2019-05-05T06:07:36.948Z,43.10
2019-05-05T06:10:21.110Z,43.20
2019-05-05T06:12:41.472Z,42.80
2019-05-05T06:15:14.208Z,42.40
2019-05-05T06:17:46.225Z,42.60
2019-05-05T06:20:17.845Z,42.50
2019-05-05T06:22:49.784Z,42.50
2019-05-05T06:25:21.528Z,41.70
2019-05-05T06:27:53.992Z,41.60
2019-05-05T06:30:25.903Z,41.90
2019-05-05T06:32:57.909Z,42.00
2019-05-05T06:35:29.744Z,41.60
2019-05-05T06:38:01.657Z,41.60
2019-05-05T06:40:37.460Z,41.50
2019-05-05T06:43:22.977Z,41.50
2019-05-05T06:45:57.888Z,41.20
2019-05-05T06:48:28.419Z,41.40
2019-05-05T06:51:00.209Z,39.40
2019-05-05T06:53:34.015Z,41.00
2019-05-05T06:56:05.054Z,41.10
2019-05-05T06:58:36.855Z,40.40
2019-05-05T07:01:08.685Z,40.10
2019-05-05T07:03:40.641Z,36.60
2019-05-05T07:06:12.170Z,36.70
2019-05-05T07:08:45.236Z,38.80
2019-05-05T07:11:17.083Z,40.30
2019-05-05T07:13:48.957Z,40.60
2019-05-05T07:16:20.849Z,40.70
2019-05-05T07:18:53.936Z,40.60
2019-05-05T07:21:25.540Z,40.70
2019-05-05T07:24:00.021Z,40.00
2019-05-05T07:26:30.454Z,37.80
2019-05-05T07:29:04.410Z,39.70
2019-05-05T07:31:34.987Z,39.30
2019-05-05T07:34:07.197Z,39.20
2019-05-05T07:36:44.461Z,39.90
2019-05-05T07:39:16.152Z,40.00
2019-05-05T07:41:47.918Z,40.10
2019-05-05T07:44:28.313Z,40.10
2019-05-05T07:46:54.747Z,40.10
2019-05-05T07:49:26.302Z,39.80
2019-05-05T07:51:57.918Z,39.80
2019-05-05T07:54:29.614Z,39.70
2019-05-05T07:57:01.249Z,38.90
2019-05-05T07:59:34.035Z,39.70
2019-05-05T08:02:05.994Z,39.70
2019-05-05T08:04:37.454Z,39.70
2019-05-05T08:07:08.989Z,40.10
2019-05-05T08:09:40.872Z,39.50
2019-05-05T08:12:13.748Z,39.40
2019-05-05T08:14:45.652Z,38.90
2019-05-05T08:17:30.149Z,39.20
2019-05-05T08:20:04.033Z,39.30
2019-05-05T08:22:35.914Z,39.40
2019-05-05T08:25:09.526Z,39.30
2019-05-05T08:27:53.557Z,38.80
2019-05-05T08:30:25.764Z,38.30
2019-05-05T08:32:57.736Z,39.10
2019-05-05T08:35:29.556Z,38.90
2019-05-05T08:38:01.253Z,39.20
2019-05-05T08:40:34.607Z,39.00
2019-05-05T08:43:05.495Z,39.00
2019-05-05T08:45:37.204Z,39.40
2019-05-05T08:48:08.925Z,38.20
2019-05-05T08:50:40.689Z,38.60
2019-05-05T08:53:13.852Z,38.70
2019-05-05T08:55:45.437Z,38.70
2019-05-05T08:58:17.245Z,38.70
2019-05-05T09:00:49.039Z,38.70
2019-05-05T09:03:20.964Z,38.70
2019-05-05T09:05:54.252Z,38.70
2019-05-05T09:08:25.453Z,38.40
2019-05-05T09:10:59.032Z,38.60
2019-05-05T09:13:30.672Z,38.70
2019-05-05T09:16:03.794Z,38.70
2019-05-05T09:18:36.688Z,38.70
2019-05-05T09:21:08.655Z,38.50
2019-05-05T09:23:55.198Z,38.60
2019-05-05T09:26:15.803Z,38.50
2019-05-05T09:28:54.647Z,38.50
2019-05-05T09:31:26.503Z,38.70
2019-05-05T09:33:58.113Z,38.30
2019-05-05T09:36:29.794Z,38.00
2019-05-05T09:39:01.394Z,39.00
2019-05-05T09:41:34.028Z,39.00
2019-05-05T09:44:05.719Z,38.30
2019-05-05T09:46:39.621Z,38.30
2019-05-05T09:49:10.605Z,37.80
2019-05-05T09:51:43.844Z,38.20
2019-05-05T09:54:17.370Z,38.00
2019-05-05T09:56:48.190Z,38.10
2019-05-05T09:59:19.877Z,38.10
2019-05-05T10:01:53.672Z,38.00
2019-05-05T10:04:25.156Z,38.00
2019-05-05T10:06:56.876Z,38.00
2019-05-05T10:09:28.557Z,37.90
2019-05-05T10:12:00.297Z,38.00
2019-05-05T10:14:33.973Z,38.10
2019-05-05T10:17:05.161Z,38.10
2019-05-05T10:19:36.936Z,38.20
2019-05-05T10:22:08.829Z,38.20
2019-05-05T10:24:50.714Z,38.20
2019-05-05T10:27:22.474Z,38.50
2019-05-05T10:29:54.744Z,38.70
2019-05-05T10:32:26.787Z,38.70
2019-05-05T10:35:04.465Z,38.60
2019-05-05T10:37:36.058Z,38.60
2019-05-05T10:40:09.243Z,38.70
2019-05-05T10:42:54.169Z,38.70
2019-05-05T10:45:25.779Z,39.00
2019-05-05T10:47:57.475Z,39.00
2019-05-05T10:50:30.027Z,39.30
2019-05-05T10:53:01.703Z,39.80
2019-05-05T10:55:34.592Z,40.30
2019-05-05T10:58:06.749Z,40.80
2019-05-05T11:00:46.965Z,41.10
2019-05-05T11:03:18.797Z,41.40
2019-05-05T11:05:50.436Z,42.00
2019-05-05T11:08:23.583Z,42.80
2019-05-05T11:10:54.987Z,42.80
2019-05-05T11:13:26.772Z,43.10
2019-05-05T11:15:58.453Z,43.50
2019-05-05T11:18:30.493Z,43.80
2019-05-05T11:21:03.906Z,44.00
2019-05-05T11:23:34.927Z,44.20
2019-05-05T11:26:06.696Z,44.30
2019-05-05T11:28:38.330Z,44.30
2019-05-05T11:31:10.310Z,44.50
2019-05-05T11:34:01.613Z,44.50
2019-05-05T11:36:34.735Z,44.60
2019-05-05T11:39:06.730Z,44.40
2019-05-05T11:41:38.847Z,44.50
2019-05-05T11:44:10.727Z,44.80
2019-05-05T11:46:44.285Z,44.90
2019-05-05T11:49:15.429Z,44.90
2019-05-05T11:51:48.523Z,45.30
2019-05-05T11:54:20.373Z,46.70
2019-05-05T11:56:53.732Z,47.00
2019-05-05T11:59:25.229Z,48.20
2019-05-05T12:01:57.081Z,47.70
2019-05-05T12:04:28.790Z,49.90
2019-05-05T12:07:00.656Z,49.60
2019-05-05T12:09:33.837Z,49.30
2019-05-05T12:12:05.712Z,49.80
2019-05-05T12:14:37.428Z,52.80
2019-05-05T12:17:09.316Z,51.60
2019-05-05T12:19:40.976Z,53.70
2019-05-05T12:22:12.745Z,54.40
2019-05-05T12:24:46.012Z,55.00
2019-05-05T12:27:19.414Z,54.60
2019-05-05T12:29:54.446Z,54.60
2019-05-05T12:32:25.584Z,54.60
2019-05-05T12:34:57.174Z,55.50
2019-05-05T12:37:28.685Z,56.50
2019-05-05T12:40:00.690Z,57.10
2019-05-05T12:42:32.349Z,57.50
2019-05-05T12:45:05.940Z,58.00
2019-05-05T12:47:42.002Z,58.30
2019-05-05T12:50:13.888Z,58.70
2019-05-05T12:52:45.916Z,58.90
2019-05-05T12:55:17.641Z,59.00
2019-05-05T12:57:49.256Z,59.60
2019-05-05T13:00:22.328Z,60.20
2019-05-05T13:02:54.011Z,60.30
2019-05-05T13:05:25.932Z,59.80
2019-05-05T13:07:57.650Z,60.00
2019-05-05T13:10:29.612Z,60.20
2019-05-05T13:13:03.661Z,61.00
2019-05-05T13:15:34.440Z,60.80
2019-05-05T13:18:06.107Z,60.10
2019-05-05T13:20:53.672Z,61.10
2019-05-05T13:23:41.264Z,62.00
2019-05-05T13:26:23.763Z,62.00
2019-05-05T13:28:55.284Z,60.20
2019-05-05T13:31:26.907Z,61.80
2019-05-05T13:33:58.617Z,61.10
2019-05-05T13:36:30.692Z,63.30
2019-05-05T13:39:02.648Z,65.00
2019-05-05T13:41:34.604Z,67.30
2019-05-05T13:44:07.719Z,68.80
2019-05-05T13:46:40.730Z,68.10
2019-05-05T13:49:19.837Z,69.00
2019-05-05T13:51:53.895Z,67.30
2019-05-05T13:54:27.024Z,69.70
2019-05-05T13:56:59.034Z,68.20
2019-05-05T13:59:30.657Z,66.20
2019-05-05T14:02:02.594Z,65.90
2019-05-05T14:04:34.414Z,64.80
2019-05-05T14:07:06.300Z,67.00
2019-05-05T14:09:37.894Z,65.90
2019-05-05T14:12:09.553Z,68.20
2019-05-05T14:14:44.100Z,64.30
2019-05-05T14:17:14.709Z,67.40
2019-05-05T14:19:46.294Z,69.40
2019-05-05T14:22:18.085Z,65.10
2019-05-05T14:24:51.250Z,65.10
2019-05-05T14:27:23.803Z,65.50
2019-05-05T14:29:56.792Z,64.50
2019-05-05T14:32:30.221Z,63.00
2019-05-05T14:35:22.038Z,62.10
2019-05-05T14:37:55.441Z,62.70
2019-05-05T14:40:27.124Z,63.60
2019-05-05T14:42:58.982Z,63.70
2019-05-05T14:45:30.646Z,63.00
2019-05-05T14:48:03.891Z,62.40
2019-05-05T14:50:35.444Z,64.50
2019-05-05T14:53:07.058Z,62.30
2019-05-05T14:55:39.236Z,61.50
2019-05-05T14:58:10.773Z,61.50
2019-05-05T15:00:44.173Z,62.20
2019-05-05T15:03:15.796Z,62.70
2019-05-05T15:05:58.731Z,62.10
2019-05-05T15:08:34.788Z,61.00
2019-05-05T15:11:17.193Z,61.40
2019-05-05T15:13:48.701Z,62.30
2019-05-05T15:16:20.461Z,61.60
2019-05-05T15:18:52.103Z,62.70
2019-05-05T15:21:24.043Z,62.00
2019-05-05T15:23:55.670Z,61.50
2019-05-05T15:26:27.608Z,62.60
2019-05-05T15:29:01.768Z,64.20
2019-05-05T15:31:34.203Z,63.60
2019-05-05T15:34:06.008Z,61.70
2019-05-05T15:36:38.177Z,63.10
2019-05-05T15:39:09.942Z,63.50
2019-05-05T15:41:41.960Z,64.50
2019-05-05T15:44:13.575Z,66.60
2019-05-05T15:46:45.452Z,65.60
2019-05-05T15:49:16.906Z,66.00
2019-05-05T15:51:48.588Z,64.50
2019-05-05T15:54:20.077Z,63.20
2019-05-05T15:57:03.039Z,65.00
2019-05-05T15:59:25.292Z,65.40
2019-05-05T16:01:59.010Z,64.20
2019-05-05T16:04:30.140Z,65.90
2019-05-05T16:07:01.907Z,64.70
2019-05-05T16:09:33.449Z,63.40
2019-05-05T16:12:05.314Z,62.90
2019-05-05T16:14:38.316Z,65.50
2019-05-05T16:17:13.536Z,65.10
2019-05-05T16:19:46.178Z,63.30
2019-05-05T16:22:19.290Z,64.60
2019-05-05T16:25:08.768Z,63.20
2019-05-05T16:27:40.688Z,64.30
2019-05-05T16:30:14.319Z,63.00
2019-05-05T16:32:45.811Z,62.70
2019-05-05T16:35:17.393Z,62.60
2019-05-05T16:37:49.139Z,62.20
2019-05-05T16:40:23.162Z,64.70
2019-05-05T16:42:54.291Z,63.50
2019-05-05T16:45:26.041Z,66.00
2019-05-05T16:47:57.775Z,63.50
2019-05-05T16:50:29.133Z,66.30
2019-05-05T16:53:05.314Z,67.10
2019-05-05T16:55:38.329Z,65.80
2019-05-05T16:58:13.891Z,66.80
2019-05-05T17:00:45.284Z,66.90
2019-05-05T17:03:16.976Z,64.20
2019-05-05T17:05:48.721Z,64.20
2019-05-05T17:08:20.782Z,66.20
2019-05-05T17:10:52.451Z,67.30
2019-05-05T17:13:25.845Z,65.00
2019-05-05T17:15:59.043Z,66.40
2019-05-05T17:18:35.800Z,65.00
2019-05-05T17:21:06.257Z,64.20
2019-05-05T17:23:38.066Z,63.70
2019-05-05T17:26:09.655Z,63.90
2019-05-05T17:28:41.329Z,63.10
2019-05-05T17:31:13.244Z,63.80
2019-05-05T17:33:45.064Z,64.20
2019-05-05T17:36:16.945Z,64.20
2019-05-05T17:38:48.661Z,62.50
2019-05-05T17:41:23.586Z,63.40
2019-05-05T17:44:04.777Z,63.70
2019-05-05T17:46:44.526Z,65.70
2019-05-05T17:49:17.469Z,63.60
2019-05-05T17:51:50.603Z,63.70
2019-05-05T17:54:26.081Z,62.50
2019-05-05T17:56:58.048Z,64.00
2019-05-05T17:59:30.177Z,64.70
2019-05-05T18:02:01.977Z,64.40
2019-05-05T18:04:36.187Z,64.80
2019-05-05T18:07:14.229Z,64.00
2019-05-05T18:09:59.549Z,63.10
2019-05-05T18:12:35.561Z,63.90
2019-05-05T18:15:09.011Z,64.50
2019-05-05T18:17:40.776Z,63.90
2019-05-05T18:20:12.435Z,63.30
2019-05-05T18:22:44.542Z,63.30
2019-05-05T18:25:16.229Z,62.50
2019-05-05T18:27:48.057Z,62.10
2019-05-05T18:30:19.892Z,62.30
2019-05-05T18:32:53.315Z,63.20
2019-05-05T18:35:24.708Z,64.20
2019-05-05T18:37:56.428Z,63.50
2019-05-05T18:40:28.069Z,63.10
2019-05-05T18:43:01.561Z,62.70
2019-05-05T18:45:33.123Z,62.90
2019-05-05T18:48:05.069Z,63.40
2019-05-05T18:50:36.925Z,62.90
2019-05-05T18:53:08.796Z,63.60
2019-05-05T18:55:40.445Z,66.00
2019-05-05T18:58:12.271Z,66.40
2019-05-05T19:00:57.834Z,63.90
2019-05-05T19:03:34.066Z,66.00
2019-05-05T19:06:09.921Z,65.40
2019-05-05T19:08:53.612Z,66.10
2019-05-05T19:11:15.978Z,66.70
2019-05-05T19:13:47.881Z,65.70
2019-05-05T19:16:19.333Z,65.20
2019-05-05T19:18:51.220Z,64.60
2019-05-05T19:21:27.160Z,64.10
2019-05-05T19:23:58.913Z,63.40
2019-05-05T19:26:30.392Z,63.70
2019-05-05T19:29:04.835Z,63.50
2019-05-05T19:31:36.602Z,63.90
2019-05-05T19:34:08.628Z,63.60
2019-05-05T19:36:40.184Z,63.20
2019-05-05T19:39:13.733Z,63.20
2019-05-05T19:41:47.115Z,63.70
2019-05-05T19:44:18.730Z,63.30
2019-05-05T19:46:52.125Z,63.30
2019-05-05T19:49:24.167Z,63.10
2019-05-05T19:51:55.657Z,63.20
2019-05-05T19:54:27.299Z,63.20
2019-05-05T19:56:59.232Z,62.80
2019-05-05T19:59:31.053Z,62.70
2019-05-05T20:02:05.267Z,62.70
2019-05-05T20:04:36.921Z,62.50
2019-05-05T20:07:08.587Z,62.50
2019-05-05T20:09:40.136Z,62.60
2019-05-05T20:12:12.714Z,62.50
2019-05-05T20:14:45.264Z,62.40
2019-05-05T20:17:18.787Z,62.40
2019-05-05T20:19:50.552Z,62.30
2019-05-05T20:22:23.649Z,62.20
2019-05-05T20:24:55.269Z,62.00
2019-05-05T20:27:27.024Z,62.10
2019-05-05T20:29:58.649Z,62.10
2019-05-05T20:32:41.064Z,62.00
2019-05-05T20:35:14.858Z,62.20
2019-05-05T20:38:04.970Z,63.20
2019-05-05T20:40:40.688Z,63.60
2019-05-05T20:43:14.305Z,65.50
2019-05-05T20:45:45.442Z,64.20
2019-05-05T20:48:17.216Z,64.30
2019-05-05T20:50:48.810Z,63.70
2019-05-05T20:53:20.412Z,64.20
2019-05-05T20:55:54.292Z,63.90
2019-05-05T20:58:25.332Z,66.90
2019-05-05T21:00:57.334Z,64.90
2019-05-05T21:03:29.363Z,65.10
2019-05-05T21:06:01.101Z,64.50
2019-05-05T21:08:34.590Z,65.90
2019-05-05T21:11:05.799Z,69.60
2019-05-05T21:13:37.321Z,69.80
2019-05-05T21:16:09.129Z,70.40
2019-05-05T21:18:40.842Z,69.70
2019-05-05T21:21:14.165Z,68.80
2019-05-05T21:23:54.620Z,67.60
2019-05-05T21:26:31.399Z,67.70
2019-05-05T21:29:04.513Z,66.60
2019-05-05T21:31:36.392Z,66.40
2019-05-05T21:34:08.336Z,65.80
2019-05-05T21:36:40.168Z,65.60
2019-05-05T21:39:11.964Z,65.30
2019-05-05T21:41:43.889Z,67.00
2019-05-05T21:44:15.556Z,70.50
2019-05-05T21:46:47.225Z,70.90
2019-05-05T21:49:18.901Z,71.10
2019-05-05T21:52:08.469Z,71.20
2019-05-05T21:54:43.770Z,71.70
2019-05-05T21:57:34.503Z,70.60
2019-05-05T22:00:07.452Z,71.90
2019-05-05T22:02:39.461Z,72.90
2019-05-05T22:05:11.651Z,72.80
2019-05-05T22:07:43.584Z,73.30
2019-05-05T22:10:15.329Z,73.70
2019-05-05T22:12:47.063Z,73.20
2019-05-05T22:15:18.776Z,72.60
2019-05-05T22:17:50.456Z,73.30
2019-05-05T22:20:23.829Z,72.40
2019-05-05T22:22:55.301Z,71.70
2019-05-05T22:25:27.068Z,71.10
2019-05-05T22:27:58.728Z,73.50
2019-05-05T22:30:30.756Z,74.40
2019-05-05T22:33:05.773Z,72.00
2019-05-05T22:35:35.642Z,71.40
2019-05-05T22:38:07.301Z,71.00
2019-05-05T22:40:39.057Z,69.80
2019-05-05T22:43:10.897Z,68.90
2019-05-05T22:45:44.850Z,69.30
2019-05-05T22:48:15.668Z,69.70
2019-05-05T22:50:47.621Z,69.40
2019-05-05T22:53:19.294Z,68.90
2019-05-05T22:55:51.132Z,69.10
2019-05-05T22:58:24.047Z,68.10
2019-05-05T23:00:55.896Z,68.60
2019-05-05T23:03:28.893Z,68.70
2019-05-05T23:06:04.209Z,68.40
2019-05-05T23:08:35.488Z,68.30
2019-05-05T23:11:07.187Z,68.50
2019-05-05T23:13:38.780Z,69.90
2019-05-05T23:16:14.558Z,69.60
2019-05-05T23:18:45.327Z,69.00
2019-05-05T23:21:21.760Z,69.20
2019-05-05T23:23:56.321Z,69.00
2019-05-05T23:26:35.944Z,67.70
2019-05-05T23:29:07.687Z,68.90
2019-05-05T23:31:39.677Z,67.80
2019-05-05T23:34:11.323Z,68.50
2019-05-05T23:36:44.321Z,69.40
2019-05-05T23:39:16.068Z,69.00
2019-05-05T23:41:47.941Z,69.70
2019-05-05T23:44:19.692Z,69.00
2019-05-05T23:46:53.570Z,68.40
2019-05-05T23:49:24.517Z,66.90
2019-05-05T23:51:56.045Z,68.00
2019-05-05T23:54:27.737Z,67.30
2019-05-05T23:56:59.513Z,67.80
2019-05-05T23:59:30.979Z,68.10
